Portada
METAR-TAF:

METAR-TAF

Aeroports :

Bluefields, Nicaragua

latitud: 12-00N, longitud: 083-46W, altitud: 5 m

Observació

L'informe es va fer fa 1 hora i 7 minuts, a les 19:00 UTC
Vent 4 kt del Nord/Nord-Est
Temperatura 28°C
Humitat 70%
Pressió 1010 hPa
Visibilitat 10 km o més
Cel cobert a una alçada de 1700 ft

METAR: MNBL 181900Z 02004KT 9999 OVC017 28/22 Q1010

Hora: 14:07 (20:07 UTC)

Pronòstic

L'informe es va fer fa 5 hores i 7 minuts, a les 15:00 UTC
Pronòstic vàlid del 18 a les 18 UTC al 19 a les 18 UTC
Vent 10 kt del Nord/Nord-Est
Visibilitat 10 km o més
Cel ennuvolat a una alçada de 1800 ft
Temporalment
l' 19 a les 03 UTC al 19 a les 10 UTC
Núvols disperses a una alçada de 1700 ft
Evolucionant progressivament
l' 19 a les 12 UTC al 19 a les 14 UTC
Vent 8 kt del Nord

TAF: MNBL 181500Z 1818/1918 02010KT 9999 BKN018 TEMPO 1903/1910 SCT017 BECMG 1912/1914 36008KT

Observacions i pronòstics meteorològics de més de 4000 aeroports (METAR i TAF).

Les estacions disponibles són els punts grocs i vermells al mapa.

Posi el ratolí al punt desitjat per veure el nom de l'estació.

Feu clic per veure les observacions i els pronòstics meteorològics.

Per canviar el mapa: feu clic els botons verds amb una creu de color negre per apropar; al botó verd amb un guió per allunyar la imatge; o en les fletxes verdes per a mapes adjacents.


METAR-TAF: